createdAt,value
2018-03-01T00:02:22.024Z,10.30
2018-03-01T00:04:50.075Z,10.95
2018-03-01T00:07:18.119Z,12.05
2018-03-01T00:09:46.161Z,11.25
2018-03-01T00:12:14.213Z,11.00
2018-03-01T00:14:42.325Z,11.48
2018-03-01T00:17:10.395Z,12.05
2018-03-01T00:19:38.459Z,11.77
2018-03-01T00:22:06.525Z,12.20
2018-03-01T00:24:34.551Z,11.12
2018-03-01T00:27:02.575Z,11.25
2018-03-01T00:29:30.615Z,12.30
2018-03-01T00:31:58.645Z,11.63
2018-03-01T00:34:26.725Z,13.30
2018-03-01T00:36:54.821Z,11.25
2018-03-01T00:39:22.864Z,12.05
2018-03-01T00:41:50.907Z,11.35
2018-03-01T00:44:18.938Z,11.35
2018-03-01T00:46:47.783Z,10.82
2018-03-01T00:49:15.840Z,12.07
2018-03-01T00:51:43.871Z,11.77
2018-03-01T00:54:12.676Z,11.60
2018-03-01T00:56:40.714Z,11.48
2018-03-01T00:59:08.783Z,11.93
2018-03-01T01:01:36.808Z,11.60
2018-03-01T01:04:04.862Z,11.65
2018-03-01T01:06:32.886Z,13.10
2018-03-01T01:09:00.932Z,12.15
2018-03-01T01:11:29.008Z,11.57
2018-03-01T01:13:57.049Z,11.30
2018-03-01T01:16:25.142Z,11.55
2018-03-01T01:18:53.216Z,11.43
2018-03-01T01:21:22.014Z,11.85
2018-03-01T01:23:50.118Z,11.55
2018-03-01T01:26:18.150Z,11.77
2018-03-01T01:28:46.200Z,11.40
2018-03-01T01:31:14.294Z,11.43
2018-03-01T01:33:42.318Z,11.98
2018-03-01T01:36:10.409Z,11.50
2018-03-01T01:38:38.446Z,12.05
2018-03-01T01:41:06.518Z,11.57
2018-03-01T01:43:36.074Z,11.35
2018-03-01T01:46:04.127Z,11.70
2018-03-01T01:48:32.234Z,11.63
2018-03-01T01:51:00.265Z,11.52
2018-03-01T01:53:28.311Z,10.88
2018-03-01T01:55:56.343Z,11.05
2018-03-01T01:58:24.361Z,10.93
2018-03-01T02:00:53.226Z,11.82
2018-03-01T02:03:21.259Z,12.02
2018-03-01T02:05:49.289Z,12.30
2018-03-01T02:08:17.344Z,11.70
2018-03-01T02:10:45.373Z,10.88
2018-03-01T02:13:14.212Z,12.27
2018-03-01T02:15:42.263Z,11.43
2018-03-01T02:18:10.309Z,10.65
2018-03-01T02:20:38.373Z,12.50
2018-03-01T02:23:06.409Z,11.32
2018-03-01T02:25:34.446Z,11.90
2018-03-01T02:28:02.529Z,11.48
2018-03-01T02:30:30.561Z,11.07
2018-03-01T02:32:58.588Z,11.73
2018-03-01T02:35:26.631Z,11.52
2018-03-01T02:37:54.661Z,11.63
2018-03-01T02:40:22.733Z,12.25
2018-03-01T02:42:50.795Z,11.93
2018-03-01T02:45:18.853Z,10.85
2018-03-01T02:47:46.895Z,11.73
2018-03-01T02:50:14.941Z,12.25
2018-03-01T02:52:43.005Z,11.15
2018-03-01T02:55:11.044Z,11.30
2018-03-01T02:57:39.084Z,11.38
2018-03-01T03:00:07.128Z,11.20
2018-03-01T03:02:35.161Z,11.55
2018-03-01T03:05:03.225Z,10.57
2018-03-01T03:07:31.262Z,11.15
2018-03-01T03:09:59.284Z,10.65
2018-03-01T03:12:27.320Z,10.82
2018-03-01T03:14:55.362Z,10.80
2018-03-01T03:17:23.434Z,10.83
2018-03-01T03:19:51.501Z,10.60
2018-03-01T03:22:19.585Z,10.50
2018-03-01T03:24:47.626Z,10.82
2018-03-01T03:27:15.694Z,11.70
2018-03-01T03:29:43.729Z,10.60
2018-03-01T03:32:11.848Z,10.80
2018-03-01T03:34:39.934Z,10.77
2018-03-01T03:37:07.981Z,11.17
2018-03-01T03:39:36.068Z,10.70
2018-03-01T03:42:04.911Z,9.98
2018-03-01T03:44:32.943Z,12.32
2018-03-01T03:47:01.048Z,11.80
2018-03-01T03:49:29.080Z,12.47
2018-03-01T03:51:57.142Z,11.68
2018-03-01T03:54:25.199Z,11.73
2018-03-01T03:56:54.008Z,10.20
2018-03-01T03:59:22.101Z,11.15
2018-03-01T04:01:50.152Z,10.70
2018-03-01T04:04:18.271Z,10.32
2018-03-01T04:06:46.311Z,9.98
2018-03-01T04:09:14.426Z,10.25
2018-03-01T04:11:42.463Z,9.80
2018-03-01T04:14:10.509Z,10.30
2018-03-01T04:16:38.570Z,10.02
2018-03-01T04:19:06.635Z,12.15
2018-03-01T04:21:34.667Z,11.80
2018-03-01T04:24:02.719Z,9.90
2018-03-01T04:26:30.759Z,9.95
2018-03-01T04:28:59.572Z,10.02
2018-03-01T04:31:29.196Z,9.93
2018-03-01T04:34:00.491Z,9.40
2018-03-01T04:36:29.479Z,8.45
2018-03-01T04:38:57.531Z,7.05
2018-03-01T04:41:25.566Z,6.60
2018-03-01T04:43:53.594Z,7.22
2018-03-01T04:46:22.444Z,11.90
2018-03-01T04:48:50.476Z,6.62
2018-03-01T04:51:18.516Z,5.68
2018-03-01T04:53:46.565Z,5.95
2018-03-01T04:56:14.601Z,5.10
2018-03-01T04:58:42.822Z,6.32
2018-03-01T05:01:10.844Z,4.80
2018-03-01T05:03:39.633Z,7.85
2018-03-01T05:06:08.433Z,9.20
2018-03-01T05:08:36.473Z,5.72
2018-03-01T05:11:05.306Z,7.15
2018-03-01T05:13:33.335Z,6.55
2018-03-01T05:16:01.368Z,8.00
2018-03-01T05:18:29.407Z,6.07
2018-03-01T05:20:57.432Z,5.93
2018-03-01T05:23:25.486Z,6.35
2018-03-01T05:25:53.542Z,12.40
2018-03-01T05:28:21.610Z,9.63
2018-03-01T05:30:49.689Z,8.18
2018-03-01T05:33:17.824Z,8.30
2018-03-01T05:35:45.878Z,7.32
2018-03-01T05:38:13.900Z,6.80
2018-03-01T05:40:41.940Z,7.90
2018-03-01T05:43:10.744Z,6.70
2018-03-01T05:45:38.796Z,6.15
2018-03-01T05:48:06.849Z,6.30
2018-03-01T05:50:34.872Z,6.62
2018-03-01T05:53:02.938Z,6.47
2018-03-01T05:55:30.964Z,6.65
2018-03-01T05:57:58.996Z,5.20
2018-03-01T06:00:27.100Z,5.43
2018-03-01T06:02:55.183Z,6.28
2018-03-01T06:05:23.231Z,5.93
2018-03-01T06:07:51.280Z,6.05
2018-03-01T06:10:19.294Z,5.95
2018-03-01T06:12:47.393Z,6.80
2018-03-01T06:15:15.423Z,6.25
2018-03-01T06:17:43.467Z,7.62
2018-03-01T06:20:11.489Z,6.30
2018-03-01T06:22:39.545Z,6.05
2018-03-01T06:25:08.388Z,6.35
2018-03-01T06:27:36.431Z,8.23
2018-03-01T06:30:05.971Z,7.65
2018-03-01T06:32:34.017Z,5.68
2018-03-01T06:35:02.061Z,5.25
2018-03-01T06:37:30.117Z,6.55
2018-03-01T06:39:58.163Z,3.80
2018-03-01T06:42:26.204Z,4.53
2018-03-01T06:44:54.218Z,3.37
2018-03-01T06:47:22.252Z,13.95
2018-03-01T06:49:50.413Z,9.68
2018-03-01T06:52:21.785Z,10.45
2018-03-01T06:54:53.736Z,12.40
2018-03-01T06:57:25.272Z,10.30
2018-03-01T06:59:55.267Z,9.38
2018-03-01T07:02:23.778Z,13.65
2018-03-01T07:04:52.612Z,11.07
2018-03-01T07:07:20.696Z,10.77
2018-03-01T07:09:48.789Z,8.00
2018-03-01T07:12:16.991Z,7.72
2018-03-01T07:14:45.047Z,6.95
2018-03-01T07:17:13.104Z,11.98
2018-03-01T07:19:41.188Z,12.50
2018-03-01T07:22:09.230Z,11.63
2018-03-01T07:24:37.276Z,22.80
2018-03-01T07:27:05.367Z,18.35
2018-03-01T07:29:33.455Z,10.38
2018-03-01T07:32:01.627Z,9.27
2018-03-01T07:34:29.680Z,8.25
2018-03-01T07:36:57.756Z,11.23
2018-03-01T07:39:25.794Z,7.87
2018-03-01T07:41:54.633Z,6.80
2018-03-01T07:44:22.966Z,7.93
2018-03-01T07:46:51.014Z,11.73
2018-03-01T07:49:19.036Z,7.10
2018-03-01T07:51:47.088Z,6.53
2018-03-01T07:54:15.161Z,8.05
2018-03-01T07:56:43.220Z,9.25
2018-03-01T07:59:11.261Z,7.43
2018-03-01T08:01:39.300Z,7.97
2018-03-01T08:04:07.319Z,8.93
2018-03-01T08:06:35.404Z,8.80
2018-03-01T08:09:03.438Z,8.27
2018-03-01T08:11:31.503Z,7.85
2018-03-01T08:13:59.566Z,7.03
2018-03-01T08:16:27.612Z,6.05
2018-03-01T08:18:55.678Z,10.32
2018-03-01T08:21:23.740Z,7.97
2018-03-01T08:23:51.797Z,8.25
2018-03-01T08:26:19.831Z,8.90
2018-03-01T08:28:47.873Z,8.65
2018-03-01T08:31:15.940Z,6.95
2018-03-01T08:33:44.740Z,7.45
2018-03-01T08:36:12.805Z,7.45
2018-03-01T08:38:41.051Z,8.82
2018-03-01T08:41:09.110Z,8.77
2018-03-01T08:43:37.186Z,7.70
2018-03-01T08:46:05.225Z,6.12
2018-03-01T08:48:33.286Z,6.70
2018-03-01T08:51:01.319Z,6.43
2018-03-01T08:53:29.351Z,6.53
2018-03-01T08:55:57.373Z,9.00
2018-03-01T08:58:25.430Z,5.87
2018-03-01T09:00:53.495Z,5.57
2018-03-01T09:03:21.565Z,5.30
2018-03-01T09:05:51.116Z,6.68
2018-03-01T09:08:19.184Z,5.40
2018-03-01T09:10:47.209Z,5.90
2018-03-01T09:13:15.266Z,6.07
2018-03-01T09:15:43.317Z,7.70
2018-03-01T09:18:11.370Z,5.97
2018-03-01T09:20:39.399Z,5.40
2018-03-01T09:23:07.433Z,6.20
2018-03-01T09:25:35.507Z,6.37
2018-03-01T09:28:03.541Z,6.78
2018-03-01T09:30:31.602Z,6.82
2018-03-01T09:32:59.605Z,5.47
2018-03-01T09:35:27.646Z,7.07
2018-03-01T09:37:55.700Z,7.05
2018-03-01T09:40:23.732Z,8.23
2018-03-01T09:42:51.789Z,5.72
2018-03-01T09:45:19.837Z,5.62
2018-03-01T09:47:48.624Z,6.32
2018-03-01T09:50:16.707Z,7.03
2018-03-01T09:52:45.509Z,5.90
2018-03-01T09:55:13.542Z,17.62
2018-03-01T09:57:41.620Z,15.70
2018-03-01T10:00:11.150Z,11.57
2018-03-01T10:02:39.472Z,10.10
2018-03-01T10:05:07.611Z,9.90
2018-03-01T10:07:36.471Z,9.05
2018-03-01T10:10:04.489Z,9.98
2018-03-01T10:12:32.574Z,11.05
2018-03-01T10:15:00.645Z,6.93
2018-03-01T10:17:28.742Z,8.95
2018-03-01T10:19:56.788Z,7.72
2018-03-01T10:22:24.848Z,8.02
2018-03-01T10:24:52.921Z,6.12
2018-03-01T10:27:20.983Z,7.90
2018-03-01T10:29:49.034Z,5.75
2018-03-01T10:32:17.090Z,7.03
2018-03-01T10:34:45.920Z,7.55
2018-03-01T10:37:13.997Z,6.30
2018-03-01T10:39:42.063Z,6.28
2018-03-01T10:42:10.131Z,6.37
2018-03-01T10:44:38.182Z,7.95
2018-03-01T10:47:06.226Z,8.48
2018-03-01T10:49:34.282Z,7.70
2018-03-01T10:52:02.355Z,7.28
2018-03-01T10:54:30.387Z,6.57
2018-03-01T10:56:58.421Z,5.90
2018-03-01T10:59:27.684Z,5.35
2018-03-01T11:02:00.022Z,7.82
2018-03-01T11:04:30.717Z,6.47
2018-03-01T11:06:58.761Z,6.85
2018-03-01T11:09:27.021Z,7.22
2018-03-01T11:11:55.104Z,6.53
2018-03-01T11:14:23.995Z,6.10
2018-03-01T11:16:52.042Z,5.70
2018-03-01T11:19:20.106Z,5.05
2018-03-01T11:21:48.183Z,5.80
2018-03-01T11:24:16.217Z,5.47
2018-03-01T11:26:44.301Z,8.70
2018-03-01T11:29:14.697Z,21.48
2018-03-01T11:31:43.324Z,41.33
2018-03-01T11:34:11.412Z,57.47
2018-03-01T11:36:39.511Z,57.60
2018-03-01T11:39:07.586Z,68.10
2018-03-01T11:41:35.667Z,61.92
2018-03-01T11:44:03.725Z,90.80
2018-03-01T11:46:31.796Z,76.55
2018-03-01T11:48:59.952Z,76.53
2018-03-01T11:51:28.050Z,90.95
2018-03-01T11:53:56.121Z,101.05
2018-03-01T11:56:24.200Z,112.25
2018-03-01T11:58:52.240Z,115.68
2018-03-01T12:01:20.486Z,97.55
2018-03-01T12:03:48.548Z,118.43
2018-03-01T12:06:16.596Z,125.65
2018-03-01T12:08:44.672Z,127.90
2018-03-01T12:11:12.750Z,122.15
2018-03-01T12:13:40.862Z,138.45
2018-03-01T12:16:08.919Z,115.68
2018-03-01T12:18:37.047Z,131.10
2018-03-01T12:21:05.114Z,116.05
2018-03-01T12:23:33.632Z,130.45
2018-03-01T12:26:01.734Z,134.65
2018-03-01T12:28:29.796Z,133.18
2018-03-01T12:30:57.892Z,126.40
2018-03-01T12:33:25.942Z,129.73
2018-03-01T12:35:53.997Z,144.82
2018-03-01T12:38:22.183Z,125.60
2018-03-01T12:40:50.245Z,130.15
2018-03-01T12:43:18.826Z,147.37
2018-03-01T12:45:46.889Z,123.45
2018-03-01T12:48:14.957Z,128.05
2018-03-01T12:50:43.017Z,138.93
2018-03-01T12:53:11.075Z,132.07
2018-03-01T12:55:39.157Z,122.30
2018-03-01T12:58:07.196Z,141.12
2018-03-01T13:00:35.257Z,133.70
2018-03-01T13:03:03.338Z,126.35
2018-03-01T13:05:31.446Z,130.48
2018-03-01T13:07:59.517Z,125.87
2018-03-01T13:10:29.356Z,138.57
2018-03-01T13:12:57.450Z,128.23
2018-03-01T13:15:25.503Z,134.10
2018-03-01T13:17:53.542Z,130.18
2018-03-01T13:20:21.609Z,125.38
2018-03-01T13:22:49.668Z,125.57
2018-03-01T13:25:17.710Z,119.03
2018-03-01T13:27:45.745Z,112.10
2018-03-01T13:30:14.784Z,124.10
2018-03-01T13:32:44.616Z,105.65
2018-03-01T13:38:13.704Z,107.00
2018-03-01T13:40:41.810Z,104.57
2018-03-01T13:43:12.263Z,107.78
2018-03-01T13:45:40.630Z,100.72
2018-03-01T13:48:08.704Z,97.12
2018-03-01T13:50:36.806Z,102.35
2018-03-01T13:53:05.073Z,96.55
2018-03-01T13:55:34.633Z,101.50
2018-03-01T13:58:02.779Z,99.97
2018-03-01T14:00:30.827Z,103.78
2018-03-01T14:02:58.912Z,115.93
2018-03-01T14:05:26.984Z,98.07
2018-03-01T14:07:55.973Z,96.28
2018-03-01T14:10:24.044Z,108.53
2018-03-01T14:12:54.561Z,111.78
2018-03-01T14:15:22.677Z,94.65
2018-03-01T14:17:52.038Z,95.62
2018-03-01T14:23:39.616Z,99.32
2018-03-01T14:26:14.144Z,98.18
2018-03-01T14:28:42.190Z,102.07
2018-03-01T14:31:10.253Z,101.28
2018-03-01T14:33:38.319Z,104.80
2018-03-01T14:36:06.375Z,95.18
2018-03-01T14:38:34.440Z,84.82
2018-03-01T14:41:02.506Z,101.82
2018-03-01T14:43:30.643Z,95.00
2018-03-01T14:45:58.702Z,93.28
2018-03-01T14:48:26.745Z,98.20
2018-03-01T14:50:55.045Z,102.47
2018-03-01T14:53:23.137Z,91.47
2018-03-01T14:55:51.199Z,94.97
2018-03-01T14:58:19.286Z,80.85
2018-03-01T15:00:47.356Z,80.28
2018-03-01T15:03:15.420Z,45.95
2018-03-01T15:05:43.475Z,61.78
2018-03-01T15:08:11.501Z,75.85
2018-03-01T15:10:39.565Z,87.60
2018-03-01T15:13:07.836Z,92.88
2018-03-01T15:15:35.976Z,102.22
2018-03-01T15:18:04.362Z,100.12
2018-03-01T15:20:32.426Z,98.72
2018-03-01T15:23:00.497Z,104.47
2018-03-01T15:25:28.575Z,118.03
2018-03-01T15:27:57.450Z,111.10
2018-03-01T15:30:25.522Z,116.72
2018-03-01T15:32:53.607Z,114.65
2018-03-01T15:35:21.680Z,114.20
2018-03-01T15:37:49.753Z,117.87
2018-03-01T15:40:17.801Z,118.75
2018-03-01T15:42:45.861Z,118.15
2018-03-01T15:45:14.691Z,58.95
2018-03-01T15:47:42.784Z,69.95
2018-03-01T15:50:10.888Z,96.18
2018-03-01T15:52:39.718Z,100.40
2018-03-01T15:55:07.801Z,89.95
2018-03-01T15:57:35.861Z,88.75
2018-03-01T16:00:04.039Z,87.97
2018-03-01T16:02:32.126Z,67.20
2018-03-01T16:05:00.230Z,64.75
2018-03-01T16:07:28.354Z,54.60
2018-03-01T16:09:56.467Z,42.62
2018-03-01T16:12:24.523Z,60.03
2018-03-01T16:14:52.601Z,59.42
2018-03-01T16:17:20.655Z,62.65
2018-03-01T16:19:48.699Z,61.65
2018-03-01T16:22:17.231Z,63.87
2018-03-01T16:24:46.104Z,74.15
2018-03-01T16:27:14.195Z,86.87
2018-03-01T16:29:42.271Z,81.72
2018-03-01T16:32:10.333Z,73.35
2018-03-01T16:34:38.397Z,67.82
2018-03-01T16:37:06.455Z,71.85
2018-03-01T16:39:34.571Z,64.85
2018-03-01T16:42:04.095Z,65.70
2018-03-01T16:44:32.935Z,64.12
2018-03-01T16:47:00.978Z,61.10
2018-03-01T16:49:29.019Z,66.28
2018-03-01T16:51:57.049Z,60.67
2018-03-01T16:54:25.130Z,58.65
2018-03-01T16:56:53.223Z,59.13
2018-03-01T16:59:21.316Z,53.55
2018-03-01T17:01:49.365Z,55.22
2018-03-01T17:04:17.426Z,54.70
2018-03-01T17:06:45.527Z,57.40
2018-03-01T17:09:13.593Z,52.55
2018-03-01T17:11:41.656Z,54.53
2018-03-01T17:14:09.734Z,47.17
2018-03-01T17:16:37.789Z,47.85
2018-03-01T17:19:05.879Z,52.83
2018-03-01T17:21:33.985Z,51.05
2018-03-01T17:24:02.047Z,48.75
2018-03-01T17:26:30.081Z,46.45
2018-03-01T17:28:58.106Z,44.03
2018-03-01T17:31:26.212Z,43.13
2018-03-01T17:33:54.273Z,44.88
2018-03-01T17:36:22.324Z,43.92
2018-03-01T17:38:50.386Z,38.72
2018-03-01T17:41:18.456Z,40.08
2018-03-01T17:43:46.899Z,34.72
2018-03-01T17:46:15.218Z,38.50
2018-03-01T17:48:43.429Z,34.83
2018-03-01T17:51:12.522Z,35.45
2018-03-01T17:53:40.590Z,35.28
2018-03-01T17:56:12.088Z,31.83
2018-03-01T17:58:40.137Z,29.90
2018-03-01T18:01:08.178Z,33.83
2018-03-01T18:03:36.229Z,31.35
2018-03-01T18:06:05.071Z,29.52
2018-03-01T18:08:33.386Z,23.33
2018-03-01T18:11:01.444Z,28.17
2018-03-01T18:13:30.266Z,29.12
2018-03-01T18:15:58.327Z,26.98
2018-03-01T18:18:26.682Z,25.10
2018-03-01T18:20:55.538Z,25.15
2018-03-01T18:23:23.591Z,31.08
2018-03-01T18:25:51.656Z,22.52
2018-03-01T18:28:20.473Z,25.02
2018-03-01T18:30:48.547Z,25.12
2018-03-01T18:33:16.899Z,22.95
2018-03-01T18:35:44.929Z,23.55
2018-03-01T18:38:13.046Z,22.17
2018-03-01T18:40:41.311Z,21.62
2018-03-01T18:43:10.279Z,22.40
2018-03-01T18:45:38.352Z,19.52
2018-03-01T18:48:07.167Z,21.17
2018-03-01T18:50:35.269Z,19.55
2018-03-01T18:53:03.357Z,21.60
2018-03-01T18:55:31.418Z,19.10
2018-03-01T18:57:59.513Z,20.12
2018-03-01T19:00:27.574Z,20.30
2018-03-01T19:02:55.656Z,18.90
2018-03-01T19:05:23.735Z,17.67
2018-03-01T19:07:51.810Z,19.23
2018-03-01T19:10:21.424Z,15.73
2018-03-01T19:12:50.667Z,16.10
2018-03-01T19:15:18.758Z,15.55
2018-03-01T19:17:47.724Z,18.00
2018-03-01T19:20:16.254Z,17.50
2018-03-01T19:22:44.289Z,15.60
2018-03-01T19:25:12.305Z,16.92
2018-03-01T19:27:40.408Z,14.57
2018-03-01T19:30:08.530Z,19.23
2018-03-01T19:32:37.670Z,13.20
2018-03-01T19:35:07.884Z,16.37
2018-03-01T19:37:35.950Z,15.27
2018-03-01T19:40:04.023Z,14.07
2018-03-01T19:42:32.066Z,14.82
2018-03-01T19:45:00.110Z,15.05
2018-03-01T19:47:28.183Z,16.55
2018-03-01T19:49:56.246Z,15.55
2018-03-01T19:52:24.311Z,11.77
2018-03-01T19:54:52.385Z,13.35
2018-03-01T19:57:20.456Z,13.65
2018-03-01T19:59:48.523Z,14.15
2018-03-01T20:02:17.342Z,15.25
2018-03-01T20:04:45.405Z,13.00
2018-03-01T20:07:13.445Z,12.15
2018-03-01T20:09:41.525Z,14.75
2018-03-01T20:12:09.600Z,14.38
2018-03-01T20:14:37.737Z,12.37
2018-03-01T20:17:05.799Z,12.95
2018-03-01T20:19:33.870Z,17.73
2018-03-01T20:22:01.934Z,13.50
2018-03-01T20:24:29.998Z,11.98
2018-03-01T20:26:58.039Z,12.02
2018-03-01T20:29:26.103Z,15.88
2018-03-01T20:31:54.151Z,12.77
2018-03-01T20:34:22.382Z,13.50
2018-03-01T20:36:50.461Z,11.00
2018-03-01T20:39:18.529Z,13.50
2018-03-01T20:41:46.608Z,12.07
2018-03-01T20:44:14.675Z,12.68
2018-03-01T20:46:42.771Z,12.43
2018-03-01T20:49:11.102Z,11.18
2018-03-01T20:51:39.341Z,11.70
2018-03-01T20:54:07.448Z,10.18
2018-03-01T20:56:35.542Z,12.73
2018-03-01T20:59:03.593Z,12.27
2018-03-01T21:01:31.642Z,13.70
2018-03-01T21:04:01.143Z,10.38
2018-03-01T21:06:29.166Z,11.73
2018-03-01T21:08:57.233Z,10.50
2018-03-01T21:11:25.295Z,11.12
2018-03-01T21:13:53.384Z,10.43
2018-03-01T21:16:21.454Z,11.25
2018-03-01T21:18:49.522Z,12.00
2018-03-01T21:21:17.630Z,11.38
2018-03-01T21:23:45.682Z,10.25
2018-03-01T21:26:13.737Z,9.95
2018-03-01T21:28:41.796Z,20.42
2018-03-01T21:31:09.833Z,12.37
2018-03-01T21:33:37.903Z,11.60
2018-03-01T21:36:06.018Z,11.48
2018-03-01T21:38:34.067Z,11.00
2018-03-01T21:41:02.872Z,11.27
2018-03-01T21:43:30.901Z,13.68
2018-03-01T21:45:58.937Z,12.25
2018-03-01T21:48:26.999Z,29.17
2018-03-01T21:50:56.547Z,9.48
2018-03-01T21:53:24.640Z,9.13
2018-03-01T21:55:52.658Z,10.48
2018-03-01T21:58:20.702Z,10.23
2018-03-01T22:00:49.619Z,13.20
2018-03-01T22:03:17.683Z,10.60
2018-03-01T22:05:45.726Z,11.12
2018-03-01T22:08:14.516Z,12.60
2018-03-01T22:10:42.555Z,12.07
2018-03-01T22:13:10.858Z,12.73
2018-03-01T22:15:38.900Z,12.07
2018-03-01T22:18:06.946Z,12.45
2018-03-01T22:20:34.980Z,10.48
2018-03-01T22:23:03.769Z,11.85
2018-03-01T22:25:31.824Z,8.98
2018-03-01T22:27:59.842Z,9.68
2018-03-01T22:30:27.863Z,10.02
2018-03-01T22:32:55.905Z,9.70
2018-03-01T22:35:23.925Z,11.93
2018-03-01T22:37:51.997Z,8.48
2018-03-01T22:40:20.053Z,11.18
2018-03-01T22:42:48.101Z,10.68
2018-03-01T22:45:16.145Z,10.68
2018-03-01T22:47:44.187Z,9.70
2018-03-01T22:50:13.017Z,9.13
2018-03-01T22:52:41.808Z,9.63
2018-03-01T22:55:09.839Z,12.68
2018-03-01T22:57:38.843Z,7.97
2018-03-01T23:00:06.858Z,9.82
2018-03-01T23:02:34.929Z,10.52
2018-03-01T23:05:03.762Z,9.85
2018-03-01T23:07:32.551Z,9.55
2018-03-01T23:10:00.567Z,8.82
2018-03-01T23:12:28.633Z,9.70
2018-03-01T23:14:56.686Z,10.10
2018-03-01T23:17:25.482Z,9.20
2018-03-01T23:19:53.698Z,10.07
2018-03-01T23:22:21.710Z,9.93
2018-03-01T23:24:50.504Z,10.95
2018-03-01T23:27:18.574Z,10.88
2018-03-01T23:29:46.632Z,8.70
2018-03-01T23:32:14.658Z,9.95
2018-03-01T23:34:42.689Z,9.68
2018-03-01T23:37:10.762Z,8.95
2018-03-01T23:39:39.574Z,8.35
2018-03-01T23:42:07.602Z,9.77
2018-03-01T23:44:35.625Z,9.82
2018-03-01T23:47:03.668Z,8.23
2018-03-01T23:49:31.694Z,10.23
2018-03-01T23:51:59.823Z,8.82
2018-03-01T23:54:27.882Z,9.20
2018-03-01T23:56:56.678Z,11.10
2018-03-01T23:59:25.787Z,9.07
